<?xml version="1.0" encoding="UTF-8" standalone="no" ?>
<gpx xmlns="http://www.topografix.com/GPX/1/1" xmlns:xsi="http://www.w3.org/2001/XMLSchema-instance" xsi:schemaLocation="http://www.topografix.com/GPX/1/1 http://www.topografix.com/GPX/1/1/gpx.xsd" version="1.1" creator="VisuGPX - https://www.visugpx.com">
  <metadata>
    <name>Traversée des Pyrénées 2/8</name>
    <desc><![CDATA[Partie 2/8 de la traversée des Pyrénées à ski.]]></desc>
  </metadata>
  <trk>
    <name><![CDATA[Canillo Course à pied]]></name>
    <trkseg>
      <trkpt lat="42.64246" lon="1.70101">
        <ele>1725.8000488281</ele>
        <time>2017-02-15T08:52:32.000Z</time>
      </trkpt>
      <trkpt lat="42.6425" lon="1.70064">
        <ele>1725.8000488281</ele>
        <time>2017-02-15T08:53:32.000Z</time>
      </trkpt>
      <trkpt lat="42.64247" lon="1.70062">
        <ele>1725.8000488281</ele>
        <time>2017-02-15T08:54:32.000Z</time>
      </trkpt>
      <trkpt lat="42.64253" lon="1.70063">
        <ele>1725.8000488281</ele>
        <time>2017-02-15T08:55:34.000Z</time>
      </trkpt>
      <trkpt lat="42.64264" lon="1.70071">
        <ele>1725.4000244141</ele>
        <time>2017-02-15T08:56:39.000Z</time>
      </trkpt>
      <trkpt lat="42.64264" lon="1.70071">
        <ele>1725.5999755859</ele>
        <time>2017-02-15T09:00:45.000Z</time>
      </trkpt>
      <trkpt lat="42.64264" lon="1.70071">
        <ele>1725.4000244141</ele>
        <time>2017-02-15T09:02:27.000Z</time>
      </trkpt>
      <trkpt lat="42.64251" lon="1.70065">
        <ele>1725.4000244141</ele>
        <time>2017-02-15T08:57:45.000Z</time>
      </trkpt>
      <trkpt lat="42.64246" lon="1.70064">
        <ele>1720.1999511719</ele>
        <time>2017-02-15T08:58:47.000Z</time>
      </trkpt>
      <trkpt lat="42.64253" lon="1.70062">
        <ele>1720.8000488281</ele>
        <time>2017-02-15T08:59:50.000Z</time>
      </trkpt>
      <trkpt lat="42.64228" lon="1.7005">
        <ele>1719.8000488281</ele>
        <time>2017-02-15T09:00:53.000Z</time>
      </trkpt>
      <trkpt lat="42.6425" lon="1.70077">
        <ele>1719.5999755859</ele>
        <time>2017-02-15T09:02:28.000Z</time>
      </trkpt>
      <trkpt lat="42.64247" lon="1.70064">
        <ele>1719.8000488281</ele>
        <time>2017-02-15T09:03:30.000Z</time>
      </trkpt>
      <trkpt lat="42.64233" lon="1.70067">
        <ele>1719.4000244141</ele>
        <time>2017-02-15T09:04:32.000Z</time>
      </trkpt>
      <trkpt lat="42.64241" lon="1.70065">
        <ele>1719.4000244141</ele>
        <time>2017-02-15T09:05:35.000Z</time>
      </trkpt>
      <trkpt lat="42.64249" lon="1.7006">
        <ele>1720.4000244141</ele>
        <time>2017-02-15T09:06:37.000Z</time>
      </trkpt>
      <trkpt lat="42.64223" lon="1.69984">
        <ele>1724.4000244141</ele>
        <time>2017-02-15T09:07:38.000Z</time>
      </trkpt>
      <trkpt lat="42.64178" lon="1.69957">
        <ele>1728.1999511719</ele>
        <time>2017-02-15T09:08:40.000Z</time>
      </trkpt>
      <trkpt lat="42.64142" lon="1.69909">
        <ele>1732.1999511719</ele>
        <time>2017-02-15T09:09:41.000Z</time>
      </trkpt>
      <trkpt lat="42.64102" lon="1.69867">
        <ele>1738.5999755859</ele>
        <time>2017-02-15T09:10:43.000Z</time>
      </trkpt>
      <trkpt lat="42.64076" lon="1.69831">
        <ele>1744.5999755859</ele>
        <time>2017-02-15T09:11:44.000Z</time>
      </trkpt>
      <trkpt lat="42.64042" lon="1.69809">
        <ele>1752.4000244141</ele>
        <time>2017-02-15T09:12:45.000Z</time>
      </trkpt>
      <trkpt lat="42.64058" lon="1.69788">
        <ele>1760.1999511719</ele>
        <time>2017-02-15T09:13:46.000Z</time>
      </trkpt>
      <trkpt lat="42.64077" lon="1.69737">
        <ele>1769.5999755859</ele>
        <time>2017-02-15T09:14:47.000Z</time>
      </trkpt>
      <trkpt lat="42.64087" lon="1.69713">
        <ele>1776.8000488281</ele>
        <time>2017-02-15T09:15:48.000Z</time>
      </trkpt>
      <trkpt lat="42.64079" lon="1.6969">
        <ele>1784.4000244141</ele>
        <time>2017-02-15T09:16:51.000Z</time>
      </trkpt>
      <trkpt lat="42.64073" lon="1.69663">
        <ele>1792.1999511719</ele>
        <time>2017-02-15T09:17:52.000Z</time>
      </trkpt>
      <trkpt lat="42.6407" lon="1.69583">
        <ele>1798.8000488281</ele>
        <time>2017-02-15T09:18:53.000Z</time>
      </trkpt>
      <trkpt lat="42.64059" lon="1.69531">
        <ele>1804.1999511719</ele>
        <time>2017-02-15T09:19:55.000Z</time>
      </trkpt>
      <trkpt lat="42.64034" lon="1.69497">
        <ele>1810.1999511719</ele>
        <time>2017-02-15T09:20:56.000Z</time>
      </trkpt>
      <trkpt lat="42.64001" lon="1.69485">
        <ele>1816.4000244141</ele>
        <time>2017-02-15T09:21:58.000Z</time>
      </trkpt>
      <trkpt lat="42.63939" lon="1.69429">
        <ele>1821.8000488281</ele>
        <time>2017-02-15T09:22:59.000Z</time>
      </trkpt>
      <trkpt lat="42.63956" lon="1.69383">
        <ele>1826.4000244141</ele>
        <time>2017-02-15T09:24:01.000Z</time>
      </trkpt>
      <trkpt lat="42.63935" lon="1.69355">
        <ele>1831.8000488281</ele>
        <time>2017-02-15T09:25:03.000Z</time>
      </trkpt>
      <trkpt lat="42.63934" lon="1.69272">
        <ele>1834.5999755859</ele>
        <time>2017-02-15T09:26:05.000Z</time>
      </trkpt>
      <trkpt lat="42.63897" lon="1.69239">
        <ele>1836.8000488281</ele>
        <time>2017-02-15T09:27:06.000Z</time>
      </trkpt>
      <trkpt lat="42.63873" lon="1.6922">
        <ele>1842.4000244141</ele>
        <time>2017-02-15T09:28:09.000Z</time>
      </trkpt>
      <trkpt lat="42.63836" lon="1.69143">
        <ele>1847.4000244141</ele>
        <time>2017-02-15T09:29:11.000Z</time>
      </trkpt>
      <trkpt lat="42.63818" lon="1.69131">
        <ele>1852.5999755859</ele>
        <time>2017-02-15T09:30:12.000Z</time>
      </trkpt>
      <trkpt lat="42.63803" lon="1.6906">
        <ele>1858.5999755859</ele>
        <time>2017-02-15T09:31:17.000Z</time>
      </trkpt>
      <trkpt lat="42.63801" lon="1.69028">
        <ele>1864.1999511719</ele>
        <time>2017-02-15T09:32:20.000Z</time>
      </trkpt>
      <trkpt lat="42.63769" lon="1.6896">
        <ele>1867</ele>
        <time>2017-02-15T09:33:23.000Z</time>
      </trkpt>
      <trkpt lat="42.63779" lon="1.68909">
        <ele>1870.4000244141</ele>
        <time>2017-02-15T09:34:26.000Z</time>
      </trkpt>
      <trkpt lat="42.63815" lon="1.68918">
        <ele>1870.5999755859</ele>
        <time>2017-02-15T09:35:27.000Z</time>
      </trkpt>
      <trkpt lat="42.63775" lon="1.68892">
        <ele>1870.8000488281</ele>
        <time>2017-02-15T09:36:30.000Z</time>
      </trkpt>
      <trkpt lat="42.63778" lon="1.68904">
        <ele>1870.8000488281</ele>
        <time>2017-02-15T09:37:31.000Z</time>
      </trkpt>
      <trkpt lat="42.63781" lon="1.68925">
        <ele>1871.5999755859</ele>
        <time>2017-02-15T09:38:33.000Z</time>
      </trkpt>
      <trkpt lat="42.63759" lon="1.68879">
        <ele>1873</ele>
        <time>2017-02-15T09:39:35.000Z</time>
      </trkpt>
      <trkpt lat="42.63748" lon="1.68812">
        <ele>1878.5999755859</ele>
        <time>2017-02-15T09:40:37.000Z</time>
      </trkpt>
      <trkpt lat="42.63778" lon="1.68743">
        <ele>1884.8000488281</ele>
        <time>2017-02-15T09:41:38.000Z</time>
      </trkpt>
      <trkpt lat="42.63742" lon="1.68718">
        <ele>1886.8000488281</ele>
        <time>2017-02-15T09:42:39.000Z</time>
      </trkpt>
      <trkpt lat="42.6374" lon="1.6861">
        <ele>1888.4000244141</ele>
        <time>2017-02-15T09:43:41.000Z</time>
      </trkpt>
      <trkpt lat="42.63738" lon="1.68545">
        <ele>1892.1999511719</ele>
        <time>2017-02-15T09:44:44.000Z</time>
      </trkpt>
      <trkpt lat="42.63737" lon="1.68508">
        <ele>1893</ele>
        <time>2017-02-15T09:45:45.000Z</time>
      </trkpt>
      <trkpt lat="42.63714" lon="1.68485">
        <ele>1895.1999511719</ele>
        <time>2017-02-15T09:46:46.000Z</time>
      </trkpt>
      <trkpt lat="42.637" lon="1.68409">
        <ele>1898.4000244141</ele>
        <time>2017-02-15T09:47:47.000Z</time>
      </trkpt>
      <trkpt lat="42.63683" lon="1.68371">
        <ele>1902.1999511719</ele>
        <time>2017-02-15T09:48:48.000Z</time>
      </trkpt>
      <trkpt lat="42.6367" lon="1.68343">
        <ele>1906.5999755859</ele>
        <time>2017-02-15T09:49:50.000Z</time>
      </trkpt>
      <trkpt lat="42.63667" lon="1.68273">
        <ele>1909.8000488281</ele>
        <time>2017-02-15T09:50:52.000Z</time>
      </trkpt>
      <trkpt lat="42.63701" lon="1.68238">
        <ele>1915.4000244141</ele>
        <time>2017-02-15T09:51:53.000Z</time>
      </trkpt>
      <trkpt lat="42.63651" lon="1.68172">
        <ele>1921.5999755859</ele>
        <time>2017-02-15T09:52:56.000Z</time>
      </trkpt>
      <trkpt lat="42.63673" lon="1.68132">
        <ele>1927</ele>
        <time>2017-02-15T09:53:57.000Z</time>
      </trkpt>
      <trkpt lat="42.63629" lon="1.68082">
        <ele>1932.1999511719</ele>
        <time>2017-02-15T09:55:00.000Z</time>
      </trkpt>
      <trkpt lat="42.63624" lon="1.68032">
        <ele>1937.1999511719</ele>
        <time>2017-02-15T09:56:03.000Z</time>
      </trkpt>
      <trkpt lat="42.63632" lon="1.6796">
        <ele>1942</ele>
        <time>2017-02-15T09:57:06.000Z</time>
      </trkpt>
      <trkpt lat="42.636" lon="1.67944">
        <ele>1947.5999755859</ele>
        <time>2017-02-15T09:58:09.000Z</time>
      </trkpt>
      <trkpt lat="42.63594" lon="1.67888">
        <ele>1953.8000488281</ele>
        <time>2017-02-15T09:59:11.000Z</time>
      </trkpt>
      <trkpt lat="42.63591" lon="1.67834">
        <ele>1960.1999511719</ele>
        <time>2017-02-15T10:00:13.000Z</time>
      </trkpt>
      <trkpt lat="42.63602" lon="1.67807">
        <ele>1966.1999511719</ele>
        <time>2017-02-15T10:01:15.000Z</time>
      </trkpt>
      <trkpt lat="42.63597" lon="1.67755">
        <ele>1973</ele>
        <time>2017-02-15T10:02:18.000Z</time>
      </trkpt>
      <trkpt lat="42.63613" lon="1.67686">
        <ele>1979.1999511719</ele>
        <time>2017-02-15T10:03:19.000Z</time>
      </trkpt>
      <trkpt lat="42.63576" lon="1.67672">
        <ele>1983.5999755859</ele>
        <time>2017-02-15T10:04:21.000Z</time>
      </trkpt>
      <trkpt lat="42.63571" lon="1.67623">
        <ele>1988.8000488281</ele>
        <time>2017-02-15T10:05:24.000Z</time>
      </trkpt>
      <trkpt lat="42.63556" lon="1.6758">
        <ele>1993.8000488281</ele>
        <time>2017-02-15T10:06:27.000Z</time>
      </trkpt>
      <trkpt lat="42.63555" lon="1.67514">
        <ele>1999</ele>
        <time>2017-02-15T10:07:30.000Z</time>
      </trkpt>
      <trkpt lat="42.63526" lon="1.67475">
        <ele>2004.4000244141</ele>
        <time>2017-02-15T10:08:32.000Z</time>
      </trkpt>
      <trkpt lat="42.63538" lon="1.67428">
        <ele>2009.1999511719</ele>
        <time>2017-02-15T10:09:34.000Z</time>
      </trkpt>
      <trkpt lat="42.63512" lon="1.67375">
        <ele>2015.5999755859</ele>
        <time>2017-02-15T10:10:37.000Z</time>
      </trkpt>
      <trkpt lat="42.6349" lon="1.67325">
        <ele>2019</ele>
        <time>2017-02-15T10:11:39.000Z</time>
      </trkpt>
      <trkpt lat="42.63479" lon="1.67251">
        <ele>2020.5999755859</ele>
        <time>2017-02-15T10:12:41.000Z</time>
      </trkpt>
      <trkpt lat="42.63443" lon="1.67207">
        <ele>2022.5999755859</ele>
        <time>2017-02-15T10:13:43.000Z</time>
      </trkpt>
      <trkpt lat="42.63425" lon="1.6717">
        <ele>2024.1999511719</ele>
        <time>2017-02-15T10:14:45.000Z</time>
      </trkpt>
      <trkpt lat="42.63403" lon="1.67103">
        <ele>2024.8000488281</ele>
        <time>2017-02-15T10:15:47.000Z</time>
      </trkpt>
      <trkpt lat="42.63408" lon="1.67029">
        <ele>2028</ele>
        <time>2017-02-15T10:16:48.000Z</time>
      </trkpt>
      <trkpt lat="42.63384" lon="1.66986">
        <ele>2030.5999755859</ele>
        <time>2017-02-15T10:17:49.000Z</time>
      </trkpt>
      <trkpt lat="42.63381" lon="1.66931">
        <ele>2032.1999511719</ele>
        <time>2017-02-15T10:18:51.000Z</time>
      </trkpt>
      <trkpt lat="42.63351" lon="1.66879">
        <ele>2035.1999511719</ele>
        <time>2017-02-15T10:19:52.000Z</time>
      </trkpt>
      <trkpt lat="42.63348" lon="1.66813">
        <ele>2039.5999755859</ele>
        <time>2017-02-15T10:20:53.000Z</time>
      </trkpt>
      <trkpt lat="42.63326" lon="1.66784">
        <ele>2045.8000488281</ele>
        <time>2017-02-15T10:21:55.000Z</time>
      </trkpt>
      <trkpt lat="42.63332" lon="1.66873">
        <ele>2045.8000488281</ele>
        <time>2017-02-15T10:22:56.000Z</time>
      </trkpt>
      <trkpt lat="42.6331" lon="1.66803">
        <ele>2045.4000244141</ele>
        <time>2017-02-15T10:23:57.000Z</time>
      </trkpt>
      <trkpt lat="42.6332" lon="1.66809">
        <ele>2045</ele>
        <time>2017-02-15T10:25:00.000Z</time>
      </trkpt>
      <trkpt lat="42.63349" lon="1.66771">
        <ele>2045.4000244141</ele>
        <time>2017-02-15T10:26:01.000Z</time>
      </trkpt>
      <trkpt lat="42.63308" lon="1.66827">
        <ele>2045</ele>
        <time>2017-02-15T10:27:02.000Z</time>
      </trkpt>
      <trkpt lat="42.63325" lon="1.66816">
        <ele>2045.4000244141</ele>
        <time>2017-02-15T10:28:04.000Z</time>
      </trkpt>
      <trkpt lat="42.63314" lon="1.66793">
        <ele>2045.8000488281</ele>
        <time>2017-02-15T10:29:05.000Z</time>
      </trkpt>
      <trkpt lat="42.63327" lon="1.66784">
        <ele>2046</ele>
        <time>2017-02-15T10:30:08.000Z</time>
      </trkpt>
      <trkpt lat="42.63303" lon="1.66796">
        <ele>2045.8000488281</ele>
        <time>2017-02-15T10:31:12.000Z</time>
      </trkpt>
      <trkpt lat="42.6332" lon="1.66798">
        <ele>2045.4000244141</ele>
        <time>2017-02-15T10:32:17.000Z</time>
      </trkpt>
      <trkpt lat="42.63315" lon="1.66799">
        <ele>2045.1999511719</ele>
        <time>2017-02-15T10:33:18.000Z</time>
      </trkpt>
      <trkpt lat="42.63306" lon="1.66799">
        <ele>2045.8000488281</ele>
        <time>2017-02-15T10:34:20.000Z</time>
      </trkpt>
      <trkpt lat="42.63327" lon="1.6679">
        <ele>2045.1999511719</ele>
        <time>2017-02-15T10:35:21.000Z</time>
      </trkpt>
      <trkpt lat="42.63311" lon="1.66733">
        <ele>2049.3999023438</ele>
        <time>2017-02-15T10:36:24.000Z</time>
      </trkpt>
      <trkpt lat="42.6326" lon="1.66719">
        <ele>2055</ele>
        <time>2017-02-15T10:37:24.000Z</time>
      </trkpt>
      <trkpt lat="42.63257" lon="1.66694">
        <ele>2060.1999511719</ele>
        <time>2017-02-15T10:38:26.000Z</time>
      </trkpt>
      <trkpt lat="42.63231" lon="1.6668">
        <ele>2065.1999511719</ele>
        <time>2017-02-15T10:39:27.000Z</time>
      </trkpt>
      <trkpt lat="42.63217" lon="1.66635">
        <ele>2070.3999023438</ele>
        <time>2017-02-15T10:40:30.000Z</time>
      </trkpt>
      <trkpt lat="42.63195" lon="1.66622">
        <ele>2075.6000976562</ele>
        <time>2017-02-15T10:41:31.000Z</time>
      </trkpt>
      <trkpt lat="42.63179" lon="1.6659">
        <ele>2081.8000488281</ele>
        <time>2017-02-15T10:42:32.000Z</time>
      </trkpt>
      <trkpt lat="42.63145" lon="1.66549">
        <ele>2087.1999511719</ele>
        <time>2017-02-15T10:43:34.000Z</time>
      </trkpt>
      <trkpt lat="42.63142" lon="1.6653">
        <ele>2092.8000488281</ele>
        <time>2017-02-15T10:44:36.000Z</time>
      </trkpt>
      <trkpt lat="42.63104" lon="1.66476">
        <ele>2099.6000976562</ele>
        <time>2017-02-15T10:45:37.000Z</time>
      </trkpt>
      <trkpt lat="42.63097" lon="1.66467">
        <ele>2105.1999511719</ele>
        <time>2017-02-15T10:46:40.000Z</time>
      </trkpt>
      <trkpt lat="42.63076" lon="1.66442">
        <ele>2112</ele>
        <time>2017-02-15T10:47:41.000Z</time>
      </trkpt>
      <trkpt lat="42.6305" lon="1.66437">
        <ele>2119</ele>
        <time>2017-02-15T10:48:44.000Z</time>
      </trkpt>
      <trkpt lat="42.63016" lon="1.66468">
        <ele>2125.8000488281</ele>
        <time>2017-02-15T10:49:46.000Z</time>
      </trkpt>
      <trkpt lat="42.63005" lon="1.66479">
        <ele>2132.8000488281</ele>
        <time>2017-02-15T10:50:49.000Z</time>
      </trkpt>
      <trkpt lat="42.62992" lon="1.66518">
        <ele>2139.3999023438</ele>
        <time>2017-02-15T10:51:50.000Z</time>
      </trkpt>
      <trkpt lat="42.6299" lon="1.66535">
        <ele>2147</ele>
        <time>2017-02-15T10:52:53.000Z</time>
      </trkpt>
      <trkpt lat="42.62974" lon="1.66579">
        <ele>2154.3999023438</ele>
        <time>2017-02-15T10:53:56.000Z</time>
      </trkpt>
      <trkpt lat="42.62943" lon="1.66585">
        <ele>2161.1999511719</ele>
        <time>2017-02-15T10:54:57.000Z</time>
      </trkpt>
      <trkpt lat="42.62931" lon="1.66589">
        <ele>2167</ele>
        <time>2017-02-15T10:56:00.000Z</time>
      </trkpt>
      <trkpt lat="42.62893" lon="1.66594">
        <ele>2171.6000976562</ele>
        <time>2017-02-15T10:57:02.000Z</time>
      </trkpt>
      <trkpt lat="42.62865" lon="1.66592">
        <ele>2178</ele>
        <time>2017-02-15T10:58:07.000Z</time>
      </trkpt>
      <trkpt lat="42.62828" lon="1.66575">
        <ele>2184.1999511719</ele>
        <time>2017-02-15T10:59:09.000Z</time>
      </trkpt>
      <trkpt lat="42.62819" lon="1.66555">
        <ele>2190.6000976562</ele>
        <time>2017-02-15T11:00:11.000Z</time>
      </trkpt>
      <trkpt lat="42.62787" lon="1.66538">
        <ele>2196</ele>
        <time>2017-02-15T11:01:13.000Z</time>
      </trkpt>
      <trkpt lat="42.62782" lon="1.66487">
        <ele>2202.6000976562</ele>
        <time>2017-02-15T11:02:14.000Z</time>
      </trkpt>
      <trkpt lat="42.62735" lon="1.6646">
        <ele>2206.6000976562</ele>
        <time>2017-02-15T11:03:18.000Z</time>
      </trkpt>
      <trkpt lat="42.627" lon="1.66444">
        <ele>2209.3999023438</ele>
        <time>2017-02-15T11:04:19.000Z</time>
      </trkpt>
      <trkpt lat="42.62689" lon="1.66405">
        <ele>2212.8000488281</ele>
        <time>2017-02-15T11:05:23.000Z</time>
      </trkpt>
      <trkpt lat="42.62638" lon="1.66382">
        <ele>2217.6000976562</ele>
        <time>2017-02-15T11:06:24.000Z</time>
      </trkpt>
      <trkpt lat="42.62653" lon="1.66362">
        <ele>2217.1999511719</ele>
        <time>2017-02-15T11:07:28.000Z</time>
      </trkpt>
      <trkpt lat="42.62681" lon="1.66371">
        <ele>2217.1999511719</ele>
        <time>2017-02-15T11:08:30.000Z</time>
      </trkpt>
      <trkpt lat="42.62681" lon="1.66372">
        <ele>2217.6000976562</ele>
        <time>2017-02-15T11:09:33.000Z</time>
      </trkpt>
      <trkpt lat="42.62676" lon="1.66371">
        <ele>2217.3999023438</ele>
        <time>2017-02-15T11:10:34.000Z</time>
      </trkpt>
      <trkpt lat="42.62658" lon="1.66398">
        <ele>2217.6000976562</ele>
        <time>2017-02-15T11:11:37.000Z</time>
      </trkpt>
      <trkpt lat="42.62669" lon="1.66387">
        <ele>2216.8000488281</ele>
        <time>2017-02-15T11:12:39.000Z</time>
      </trkpt>
      <trkpt lat="42.6265" lon="1.66383">
        <ele>2217</ele>
        <time>2017-02-15T11:13:41.000Z</time>
      </trkpt>
      <trkpt lat="42.6266" lon="1.66387">
        <ele>2217.3999023438</ele>
        <time>2017-02-15T11:14:43.000Z</time>
      </trkpt>
      <trkpt lat="42.62647" lon="1.66358">
        <ele>2221.8000488281</ele>
        <time>2017-02-15T11:15:44.000Z</time>
      </trkpt>
      <trkpt lat="42.62633" lon="1.66333">
        <ele>2226.1999511719</ele>
        <time>2017-02-15T11:16:47.000Z</time>
      </trkpt>
      <trkpt lat="42.62591" lon="1.66344">
        <ele>2231.8000488281</ele>
        <time>2017-02-15T11:17:49.000Z</time>
      </trkpt>
      <trkpt lat="42.6258" lon="1.66363">
        <ele>2234.6000976562</ele>
        <time>2017-02-15T11:18:52.000Z</time>
      </trkpt>
      <trkpt lat="42.62568" lon="1.66389">
        <ele>2242.8000488281</ele>
        <time>2017-02-15T11:19:54.000Z</time>
      </trkpt>
      <trkpt lat="42.62556" lon="1.66384">
        <ele>2248.6000976562</ele>
        <time>2017-02-15T11:20:56.000Z</time>
      </trkpt>
      <trkpt lat="42.6253" lon="1.66389">
        <ele>2253</ele>
        <time>2017-02-15T11:21:58.000Z</time>
      </trkpt>
      <trkpt lat="42.62528" lon="1.66384">
        <ele>2254.8000488281</ele>
        <time>2017-02-15T11:23:01.000Z</time>
      </trkpt>
      <trkpt lat="42.62513" lon="1.66398">
        <ele>2254.3999023438</ele>
        <time>2017-02-15T11:24:02.000Z</time>
      </trkpt>
      <trkpt lat="42.62513" lon="1.66393">
        <ele>2254.6000976562</ele>
        <time>2017-02-15T11:25:05.000Z</time>
      </trkpt>
      <trkpt lat="42.62534" lon="1.66384">
        <ele>2254.6000976562</ele>
        <time>2017-02-15T11:26:09.000Z</time>
      </trkpt>
      <trkpt lat="42.62525" lon="1.66392">
        <ele>2254.6000976562</ele>
        <time>2017-02-15T11:27:10.000Z</time>
      </trkpt>
      <trkpt lat="42.62543" lon="1.66382">
        <ele>2254.6000976562</ele>
        <time>2017-02-15T11:28:12.000Z</time>
      </trkpt>
      <trkpt lat="42.62476" lon="1.66263">
        <ele>2254.6000976562</ele>
        <time>2017-02-15T11:29:18.000Z</time>
      </trkpt>
      <trkpt lat="42.62499" lon="1.66384">
        <ele>2254.3999023438</ele>
        <time>2017-02-15T11:30:20.000Z</time>
      </trkpt>
      <trkpt lat="42.62556" lon="1.66357">
        <ele>2255</ele>
        <time>2017-02-15T11:31:23.000Z</time>
      </trkpt>
      <trkpt lat="42.62545" lon="1.66374">
        <ele>2254.6000976562</ele>
        <time>2017-02-15T11:32:24.000Z</time>
      </trkpt>
      <trkpt lat="42.62582" lon="1.66361">
        <ele>2256</ele>
        <time>2017-02-15T11:33:28.000Z</time>
      </trkpt>
      <trkpt lat="42.62578" lon="1.6635">
        <ele>2255.6000976562</ele>
        <time>2017-02-15T11:34:37.000Z</time>
      </trkpt>
      <trkpt lat="42.62545" lon="1.66382">
        <ele>2255.3999023438</ele>
        <time>2017-02-15T11:35:38.000Z</time>
      </trkpt>
      <trkpt lat="42.62579" lon="1.6637">
        <ele>2255.1999511719</ele>
        <time>2017-02-15T11:36:41.000Z</time>
      </trkpt>
      <trkpt lat="42.62549" lon="1.66383">
        <ele>2255.3999023438</ele>
        <time>2017-02-15T11:37:42.000Z</time>
      </trkpt>
      <trkpt lat="42.62557" lon="1.66373">
        <ele>2255.3999023438</ele>
        <time>2017-02-15T11:38:44.000Z</time>
      </trkpt>
      <trkpt lat="42.62547" lon="1.66369">
        <ele>2255.1999511719</ele>
        <time>2017-02-15T11:39:46.000Z</time>
      </trkpt>
      <trkpt lat="42.62559" lon="1.66378">
        <ele>2255.1999511719</ele>
        <time>2017-02-15T11:40:48.000Z</time>
      </trkpt>
      <trkpt lat="42.62545" lon="1.66364">
        <ele>2258.1999511719</ele>
        <time>2017-02-15T11:41:50.000Z</time>
      </trkpt>
      <trkpt lat="42.62525" lon="1.66372">
        <ele>2265.1999511719</ele>
        <time>2017-02-15T11:42:52.000Z</time>
      </trkpt>
      <trkpt lat="42.62502" lon="1.66359">
        <ele>2272</ele>
        <time>2017-02-15T11:43:54.000Z</time>
      </trkpt>
      <trkpt lat="42.62481" lon="1.66364">
        <ele>2277.6000976562</ele>
        <time>2017-02-15T11:44:56.000Z</time>
      </trkpt>
      <trkpt lat="42.62479" lon="1.66368">
        <ele>2284.1999511719</ele>
        <time>2017-02-15T11:45:58.000Z</time>
      </trkpt>
      <trkpt lat="42.62466" lon="1.66368">
        <ele>2288.8000488281</ele>
        <time>2017-02-15T11:47:00.000Z</time>
      </trkpt>
      <trkpt lat="42.62492" lon="1.66356">
        <ele>2293.6000976562</ele>
        <time>2017-02-15T11:48:01.000Z</time>
      </trkpt>
      <trkpt lat="42.6249" lon="1.66358">
        <ele>2296.3999023438</ele>
        <time>2017-02-15T11:49:03.000Z</time>
      </trkpt>
      <trkpt lat="42.62478" lon="1.66333">
        <ele>2299.8000488281</ele>
        <time>2017-02-15T11:50:04.000Z</time>
      </trkpt>
      <trkpt lat="42.62475" lon="1.6632">
        <ele>2306.3999023438</ele>
        <time>2017-02-15T11:51:06.000Z</time>
      </trkpt>
      <trkpt lat="42.6247" lon="1.66319">
        <ele>2311.1999511719</ele>
        <time>2017-02-15T11:52:07.000Z</time>
      </trkpt>
      <trkpt lat="42.62463" lon="1.6631">
        <ele>2311.8000488281</ele>
        <time>2017-02-15T11:53:09.000Z</time>
      </trkpt>
      <trkpt lat="42.6246" lon="1.66324">
        <ele>2311.6000976562</ele>
        <time>2017-02-15T11:54:12.000Z</time>
      </trkpt>
      <trkpt lat="42.62481" lon="1.66321">
        <ele>2310.6000976562</ele>
        <time>2017-02-15T11:55:13.000Z</time>
      </trkpt>
      <trkpt lat="42.62473" lon="1.66317">
        <ele>2310.3999023438</ele>
        <time>2017-02-15T11:56:15.000Z</time>
      </trkpt>
      <trkpt lat="42.62472" lon="1.66309">
        <ele>2310.6000976562</ele>
        <time>2017-02-15T11:57:18.000Z</time>
      </trkpt>
      <trkpt lat="42.62467" lon="1.66315">
        <ele>2311</ele>
        <time>2017-02-15T11:58:18.000Z</time>
      </trkpt>
      <trkpt lat="42.6247" lon="1.66315">
        <ele>2310.8000488281</ele>
        <time>2017-02-15T11:59:19.000Z</time>
      </trkpt>
      <trkpt lat="42.62451" lon="1.6631">
        <ele>2313.1999511719</ele>
        <time>2017-02-15T12:00:21.000Z</time>
      </trkpt>
      <trkpt lat="42.62453" lon="1.663">
        <ele>2319.1999511719</ele>
        <time>2017-02-15T12:01:22.000Z</time>
      </trkpt>
      <trkpt lat="42.62417" lon="1.66258">
        <ele>2326.1999511719</ele>
        <time>2017-02-15T12:02:24.000Z</time>
      </trkpt>
      <trkpt lat="42.62417" lon="1.66213">
        <ele>2331.6000976562</ele>
        <time>2017-02-15T12:03:27.000Z</time>
      </trkpt>
      <trkpt lat="42.62401" lon="1.66154">
        <ele>2337.3999023438</ele>
        <time>2017-02-15T12:04:28.000Z</time>
      </trkpt>
      <trkpt lat="42.62378" lon="1.6615">
        <ele>2341.1999511719</ele>
        <time>2017-02-15T12:05:29.000Z</time>
      </trkpt>
      <trkpt lat="42.62351" lon="1.66131">
        <ele>2348.1999511719</ele>
        <time>2017-02-15T12:06:30.000Z</time>
      </trkpt>
      <trkpt lat="42.6234" lon="1.66101">
        <ele>2354.6000976562</ele>
        <time>2017-02-15T12:07:32.000Z</time>
      </trkpt>
      <trkpt lat="42.62334" lon="1.66081">
        <ele>2362.3999023438</ele>
        <time>2017-02-15T12:08:34.000Z</time>
      </trkpt>
      <trkpt lat="42.62334" lon="1.66081">
        <ele>2362.3999023438</ele>
        <time>2017-02-15T12:08:33.000Z</time>
      </trkpt>
      <trkpt lat="42.6235" lon="1.66009">
        <ele>2369.3999023438</ele>
        <time>2017-02-15T12:09:34.000Z</time>
      </trkpt>
      <trkpt lat="42.62328" lon="1.66017">
        <ele>2377</ele>
        <time>2017-02-15T12:10:35.000Z</time>
      </trkpt>
      <trkpt lat="42.62335" lon="1.65982">
        <ele>2384.1999511719</ele>
        <time>2017-02-15T12:11:37.000Z</time>
      </trkpt>
      <trkpt lat="42.62316" lon="1.65955">
        <ele>2391.3999023438</ele>
        <time>2017-02-15T12:12:39.000Z</time>
      </trkpt>
      <trkpt lat="42.62294" lon="1.65928">
        <ele>2398.1999511719</ele>
        <time>2017-02-15T12:13:40.000Z</time>
      </trkpt>
      <trkpt lat="42.62292" lon="1.65914">
        <ele>2403.8000488281</ele>
        <time>2017-02-15T12:14:42.000Z</time>
      </trkpt>
      <trkpt lat="42.62284" lon="1.659">
        <ele>2407</ele>
        <time>2017-02-15T12:15:43.000Z</time>
      </trkpt>
      <trkpt lat="42.62276" lon="1.65863">
        <ele>2413.1999511719</ele>
        <time>2017-02-15T12:16:44.000Z</time>
      </trkpt>
      <trkpt lat="42.62243" lon="1.65837">
        <ele>2419</ele>
        <time>2017-02-15T12:17:46.000Z</time>
      </trkpt>
      <trkpt lat="42.62268" lon="1.65798">
        <ele>2425.6000976562</ele>
        <time>2017-02-15T12:18:47.000Z</time>
      </trkpt>
      <trkpt lat="42.62276" lon="1.65806">
        <ele>2428.3999023438</ele>
        <time>2017-02-15T12:19:49.000Z</time>
      </trkpt>
      <trkpt lat="42.62246" lon="1.65749">
        <ele>2436.8000488281</ele>
        <time>2017-02-15T12:20:51.000Z</time>
      </trkpt>
      <trkpt lat="42.62221" lon="1.65803">
        <ele>2442.1999511719</ele>
        <time>2017-02-15T12:21:52.000Z</time>
      </trkpt>
      <trkpt lat="42.6221" lon="1.65775">
        <ele>2447.3999023438</ele>
        <time>2017-02-15T12:22:53.000Z</time>
      </trkpt>
      <trkpt lat="42.62205" lon="1.65761">
        <ele>2454.8000488281</ele>
        <time>2017-02-15T12:23:56.000Z</time>
      </trkpt>
      <trkpt lat="42.62193" lon="1.65758">
        <ele>2461</ele>
        <time>2017-02-15T12:24:57.000Z</time>
      </trkpt>
      <trkpt lat="42.62192" lon="1.65736">
        <ele>2466.6000976562</ele>
        <time>2017-02-15T12:25:58.000Z</time>
      </trkpt>
      <trkpt lat="42.62166" lon="1.65737">
        <ele>2470.1999511719</ele>
        <time>2017-02-15T12:27:00.000Z</time>
      </trkpt>
      <trkpt lat="42.6219" lon="1.65747">
        <ele>2470</ele>
        <time>2017-02-15T12:28:00.000Z</time>
      </trkpt>
      <trkpt lat="42.62188" lon="1.65749">
        <ele>2470.1999511719</ele>
        <time>2017-02-15T12:29:00.000Z</time>
      </trkpt>
      <trkpt lat="42.62188" lon="1.65764">
        <ele>2470</ele>
        <time>2017-02-15T12:30:01.000Z</time>
      </trkpt>
      <trkpt lat="42.62173" lon="1.65734">
        <ele>2470.1999511719</ele>
        <time>2017-02-15T12:31:04.000Z</time>
      </trkpt>
      <trkpt lat="42.62169" lon="1.65732">
        <ele>2470.1999511719</ele>
        <time>2017-02-15T12:32:08.000Z</time>
      </trkpt>
      <trkpt lat="42.6218" lon="1.6571">
        <ele>2477.1999511719</ele>
        <time>2017-02-15T12:33:09.000Z</time>
      </trkpt>
      <trkpt lat="42.62183" lon="1.65715">
        <ele>2484.8000488281</ele>
        <time>2017-02-15T12:34:12.000Z</time>
      </trkpt>
      <trkpt lat="42.62179" lon="1.65683">
        <ele>2489.6000976562</ele>
        <time>2017-02-15T12:35:15.000Z</time>
      </trkpt>
      <trkpt lat="42.62181" lon="1.65703">
        <ele>2489.8000488281</ele>
        <time>2017-02-15T12:36:17.000Z</time>
      </trkpt>
      <trkpt lat="42.6219" lon="1.65681">
        <ele>2490</ele>
        <time>2017-02-15T12:37:19.000Z</time>
      </trkpt>
      <trkpt lat="42.62172" lon="1.65683">
        <ele>2489</ele>
        <time>2017-02-15T12:38:25.000Z</time>
      </trkpt>
      <trkpt lat="42.62174" lon="1.65683">
        <ele>2489.8000488281</ele>
        <time>2017-02-15T12:39:27.000Z</time>
      </trkpt>
      <trkpt lat="42.6218" lon="1.65684">
        <ele>2489.6000976562</ele>
        <time>2017-02-15T12:40:29.000Z</time>
      </trkpt>
      <trkpt lat="42.62175" lon="1.65703">
        <ele>2490.1999511719</ele>
        <time>2017-02-15T12:41:32.000Z</time>
      </trkpt>
      <trkpt lat="42.62184" lon="1.65707">
        <ele>2490.6000976562</ele>
        <time>2017-02-15T12:42:32.000Z</time>
      </trkpt>
      <trkpt lat="42.62166" lon="1.65699">
        <ele>2494.6000976562</ele>
        <time>2017-02-15T12:43:32.000Z</time>
      </trkpt>
      <trkpt lat="42.62164" lon="1.65704">
        <ele>2495.8000488281</ele>
        <time>2017-02-15T12:44:35.000Z</time>
      </trkpt>
      <trkpt lat="42.62158" lon="1.65718">
        <ele>2496.1999511719</ele>
        <time>2017-02-15T12:45:37.000Z</time>
      </trkpt>
      <trkpt lat="42.62153" lon="1.65724">
        <ele>2500</ele>
        <time>2017-02-15T12:46:42.000Z</time>
      </trkpt>
      <trkpt lat="42.62155" lon="1.65677">
        <ele>2506.3999023438</ele>
        <time>2017-02-15T12:47:46.000Z</time>
      </trkpt>
      <trkpt lat="42.62133" lon="1.65736">
        <ele>2512.6000976562</ele>
        <time>2017-02-15T12:48:48.000Z</time>
      </trkpt>
      <trkpt lat="42.62118" lon="1.65637">
        <ele>2519.6000976562</ele>
        <time>2017-02-15T12:49:52.000Z</time>
      </trkpt>
      <trkpt lat="42.6212" lon="1.65615">
        <ele>2524.1999511719</ele>
        <time>2017-02-15T12:51:01.000Z</time>
      </trkpt>
      <trkpt lat="42.62094" lon="1.65671">
        <ele>2531.3999023438</ele>
        <time>2017-02-15T12:52:08.000Z</time>
      </trkpt>
      <trkpt lat="42.62106" lon="1.65715">
        <ele>2538</ele>
        <time>2017-02-15T12:53:14.000Z</time>
      </trkpt>
      <trkpt lat="42.62068" lon="1.65759">
        <ele>2544.6000976562</ele>
        <time>2017-02-15T12:54:15.000Z</time>
      </trkpt>
      <trkpt lat="42.62055" lon="1.6571">
        <ele>2550.8000488281</ele>
        <time>2017-02-15T12:55:18.000Z</time>
      </trkpt>
      <trkpt lat="42.62129" lon="1.65679">
        <ele>2551</ele>
        <time>2017-02-15T12:56:22.000Z</time>
      </trkpt>
      <trkpt lat="42.62109" lon="1.65721">
        <ele>2551.8000488281</ele>
        <time>2017-02-15T12:57:29.000Z</time>
      </trkpt>
      <trkpt lat="42.62082" lon="1.65716">
        <ele>2548.8000488281</ele>
        <time>2017-02-15T12:58:31.000Z</time>
      </trkpt>
      <trkpt lat="42.62114" lon="1.65697">
        <ele>2551.1999511719</ele>
        <time>2017-02-15T12:59:33.000Z</time>
      </trkpt>
      <trkpt lat="42.62103" lon="1.65692">
        <ele>2551.3999023438</ele>
        <time>2017-02-15T13:00:33.000Z</time>
      </trkpt>
      <trkpt lat="42.62094" lon="1.65694">
        <ele>2550.8000488281</ele>
        <time>2017-02-15T13:01:33.000Z</time>
      </trkpt>
      <trkpt lat="42.62094" lon="1.65687">
        <ele>2550.1999511719</ele>
        <time>2017-02-15T13:02:36.000Z</time>
      </trkpt>
      <trkpt lat="42.62088" lon="1.65705">
        <ele>2550.3999023438</ele>
        <time>2017-02-15T13:03:37.000Z</time>
      </trkpt>
      <trkpt lat="42.62096" lon="1.65693">
        <ele>2551.3999023438</ele>
        <time>2017-02-15T13:04:38.000Z</time>
      </trkpt>
      <trkpt lat="42.62103" lon="1.65706">
        <ele>2549.8000488281</ele>
        <time>2017-02-15T13:05:40.000Z</time>
      </trkpt>
      <trkpt lat="42.62091" lon="1.65704">
        <ele>2550.1999511719</ele>
        <time>2017-02-15T13:06:44.000Z</time>
      </trkpt>
      <trkpt lat="42.621" lon="1.65704">
        <ele>2550.6000976562</ele>
        <time>2017-02-15T13:07:46.000Z</time>
      </trkpt>
      <trkpt lat="42.62085" lon="1.65713">
        <ele>2551</ele>
        <time>2017-02-15T13:08:47.000Z</time>
      </trkpt>
      <trkpt lat="42.62104" lon="1.657">
        <ele>2550.1999511719</ele>
        <time>2017-02-15T13:09:51.000Z</time>
      </trkpt>
      <trkpt lat="42.62103" lon="1.65694">
        <ele>2551</ele>
        <time>2017-02-15T13:10:54.000Z</time>
      </trkpt>
      <trkpt lat="42.62107" lon="1.65692">
        <ele>2551.1999511719</ele>
        <time>2017-02-15T13:11:56.000Z</time>
      </trkpt>
      <trkpt lat="42.62099" lon="1.65702">
        <ele>2550.3999023438</ele>
        <time>2017-02-15T13:12:57.000Z</time>
      </trkpt>
      <trkpt lat="42.62097" lon="1.65692">
        <ele>2551.3999023438</ele>
        <time>2017-02-15T13:13:59.000Z</time>
      </trkpt>
      <trkpt lat="42.6209" lon="1.65682">
        <ele>2551.3999023438</ele>
        <time>2017-02-15T13:15:01.000Z</time>
      </trkpt>
      <trkpt lat="42.62098" lon="1.65695">
        <ele>2550.8000488281</ele>
        <time>2017-02-15T13:16:03.000Z</time>
      </trkpt>
      <trkpt lat="42.62114" lon="1.65706">
        <ele>2551.6000976562</ele>
        <time>2017-02-15T13:17:05.000Z</time>
      </trkpt>
      <trkpt lat="42.62097" lon="1.65694">
        <ele>2550.6000976562</ele>
        <time>2017-02-15T13:18:09.000Z</time>
      </trkpt>
      <trkpt lat="42.62094" lon="1.65683">
        <ele>2551.1999511719</ele>
        <time>2017-02-15T13:19:10.000Z</time>
      </trkpt>
      <trkpt lat="42.6209" lon="1.65513">
        <ele>2527.1999511719</ele>
        <time>2017-02-15T13:20:11.000Z</time>
      </trkpt>
      <trkpt lat="42.61956" lon="1.65298">
        <ele>2457.3999023438</ele>
        <time>2017-02-15T13:21:13.000Z</time>
      </trkpt>
      <trkpt lat="42.61995" lon="1.65275">
        <ele>2456</ele>
        <time>2017-02-15T13:22:20.000Z</time>
      </trkpt>
      <trkpt lat="42.61981" lon="1.65287">
        <ele>2456.3999023438</ele>
        <time>2017-02-15T13:23:23.000Z</time>
      </trkpt>
      <trkpt lat="42.61977" lon="1.65307">
        <ele>2456</ele>
        <time>2017-02-15T13:24:24.000Z</time>
      </trkpt>
      <trkpt lat="42.61954" lon="1.65246">
        <ele>2447.3999023438</ele>
        <time>2017-02-15T13:25:27.000Z</time>
      </trkpt>
      <trkpt lat="42.61949" lon="1.65182">
        <ele>2434.8000488281</ele>
        <time>2017-02-15T13:26:28.000Z</time>
      </trkpt>
      <trkpt lat="42.61839" lon="1.65067">
        <ele>2392.3999023438</ele>
        <time>2017-02-15T13:27:31.000Z</time>
      </trkpt>
      <trkpt lat="42.61869" lon="1.6495">
        <ele>2368.8000488281</ele>
        <time>2017-02-15T13:28:32.000Z</time>
      </trkpt>
      <trkpt lat="42.61881" lon="1.64581">
        <ele>2320</ele>
        <time>2017-02-15T13:29:35.000Z</time>
      </trkpt>
      <trkpt lat="42.61852" lon="1.64399">
        <ele>2299</ele>
        <time>2017-02-15T13:30:40.000Z</time>
      </trkpt>
      <trkpt lat="42.6194" lon="1.64287">
        <ele>2282.1999511719</ele>
        <time>2017-02-15T13:31:42.000Z</time>
      </trkpt>
      <trkpt lat="42.61858" lon="1.64214">
        <ele>2237.8000488281</ele>
        <time>2017-02-15T13:32:47.000Z</time>
      </trkpt>
      <trkpt lat="42.61819" lon="1.64198">
        <ele>2218.3999023438</ele>
        <time>2017-02-15T13:33:52.000Z</time>
      </trkpt>
      <trkpt lat="42.61841" lon="1.63966">
        <ele>2198.3999023438</ele>
        <time>2017-02-15T13:34:54.000Z</time>
      </trkpt>
      <trkpt lat="42.62064" lon="1.63754">
        <ele>2202</ele>
        <time>2017-02-15T13:36:01.000Z</time>
      </trkpt>
      <trkpt lat="42.61764" lon="1.63993">
        <ele>2201.1999511719</ele>
        <time>2017-02-15T13:37:08.000Z</time>
      </trkpt>
      <trkpt lat="42.61826" lon="1.63888">
        <ele>2201.8000488281</ele>
        <time>2017-02-15T13:38:11.000Z</time>
      </trkpt>
    </trkseg>
  </trk>
</gpx>